createdAt,value
2023-05-10T00:02:24.679Z,26.65
2023-05-10T00:07:29.346Z,28.20
2023-05-10T00:12:32.402Z,27.65
2023-05-10T00:17:35.780Z,30.00
2023-05-10T00:22:40.476Z,31.70
2023-05-10T00:27:43.612Z,33.10
2023-05-10T00:32:49.184Z,33.97
2023-05-10T00:37:53.787Z,31.52
2023-05-10T00:42:57.460Z,31.50
2023-05-10T00:48:01.267Z,35.35
2023-05-10T00:53:05.914Z,33.42
2023-05-10T00:58:09.095Z,35.08
2023-05-10T01:03:12.461Z,31.98
2023-05-10T01:08:17.227Z,33.03
2023-05-10T01:13:25.461Z,36.40
2023-05-10T01:18:28.993Z,36.28
2023-05-10T01:23:46.366Z,36.33
2023-05-10T01:29:07.002Z,35.92
2023-05-10T01:34:14.263Z,35.42
2023-05-10T01:39:19.930Z,32.42
2023-05-10T01:44:26.812Z,30.08
2023-05-10T01:49:34.039Z,28.23
2023-05-10T01:54:37.690Z,28.85
2023-05-10T01:59:41.911Z,29.17
2023-05-10T02:04:47.205Z,28.23
2023-05-10T02:09:50.398Z,28.95
2023-05-10T02:14:54.831Z,28.17
2023-05-10T02:20:02.034Z,30.38
2023-05-10T02:25:05.459Z,28.40
2023-05-10T02:30:09.500Z,32.20
2023-05-10T02:35:14.226Z,32.05
2023-05-10T02:40:19.563Z,32.17
2023-05-10T02:45:23.940Z,34.17
2023-05-10T02:50:29.451Z,37.40
2023-05-10T02:55:34.753Z,39.85
2023-05-10T03:00:38.434Z,39.30
2023-05-10T03:05:43.045Z,37.92
2023-05-10T03:10:52.584Z,37.72
2023-05-10T03:16:00.081Z,36.50
2023-05-10T03:21:07.036Z,37.40
2023-05-10T03:26:10.844Z,40.28
2023-05-10T03:31:14.258Z,41.35
2023-05-10T03:36:19.893Z,41.38
2023-05-10T03:41:23.576Z,39.05
2023-05-10T03:46:26.786Z,39.63
2023-05-10T03:51:32.168Z,38.63
2023-05-10T03:56:35.685Z,38.50
2023-05-10T04:01:39.001Z,36.38
2023-05-10T04:06:43.620Z,38.22
2023-05-10T04:11:46.822Z,34.42
2023-05-10T04:16:50.032Z,34.70
2023-05-10T04:21:54.776Z,32.40
2023-05-10T04:26:58.054Z,33.58
2023-05-10T04:32:01.167Z,30.77
2023-05-10T04:37:05.717Z,29.00
2023-05-10T04:42:09.043Z,31.50
2023-05-10T04:47:13.418Z,34.15
2023-05-10T04:52:18.927Z,34.95
2023-05-10T04:57:22.335Z,33.13
2023-05-10T05:02:25.841Z,33.50
2023-05-10T05:07:31.666Z,32.78
2023-05-10T05:12:34.867Z,33.65
2023-05-10T05:17:37.997Z,33.17
2023-05-10T05:22:42.511Z,34.65
2023-05-10T05:27:45.597Z,33.22
2023-05-10T05:32:49.062Z,32.72
2023-05-10T05:37:53.589Z,33.15
2023-05-10T05:42:56.686Z,30.85
2023-05-10T05:48:00.447Z,31.48
2023-05-10T05:53:04.993Z,33.38
2023-05-10T05:58:08.110Z,32.95
2023-05-10T06:03:11.599Z,33.95
2023-05-10T06:08:16.151Z,34.47
2023-05-10T06:13:19.503Z,36.75
2023-05-10T06:18:22.660Z,33.97
2023-05-10T06:23:27.429Z,33.38
2023-05-10T06:28:32.345Z,32.42
2023-05-10T06:33:36.228Z,36.42
2023-05-10T06:38:40.659Z,36.05
2023-05-10T06:43:44.305Z,35.65
2023-05-10T06:48:47.400Z,36.05
2023-05-10T06:53:51.922Z,33.25
2023-05-10T06:58:55.079Z,33.65
2023-05-10T07:03:58.234Z,34.50
2023-05-10T07:09:03.174Z,34.72
2023-05-10T07:14:07.232Z,38.30
2023-05-10T07:19:10.549Z,38.63
2023-05-10T07:24:14.995Z,40.33
2023-05-10T07:29:18.124Z,42.13
2023-05-10T07:34:21.332Z,41.15
2023-05-10T07:39:27.772Z,42.95
2023-05-10T07:44:31.491Z,40.58
2023-05-10T07:49:34.604Z,42.30
2023-05-10T07:54:39.072Z,39.08
2023-05-10T07:59:42.274Z,39.45
2023-05-10T08:04:45.584Z,37.85
2023-05-10T08:09:50.145Z,36.15
2023-05-10T08:14:53.284Z,34.67
2023-05-10T08:19:56.499Z,35.30
2023-05-10T08:25:00.971Z,35.55
2023-05-10T08:30:04.077Z,33.17
2023-05-10T08:35:08.628Z,32.72
2023-05-10T08:40:13.728Z,29.85
2023-05-10T08:45:17.851Z,26.63
2023-05-10T08:50:22.887Z,23.20
2023-05-10T08:55:27.670Z,19.98
2023-05-10T09:00:31.043Z,17.23
2023-05-10T09:05:34.303Z,16.23
2023-05-10T09:10:39.208Z,14.77
2023-05-10T09:15:42.525Z,11.32
2023-05-10T09:20:46.016Z,11.20
2023-05-10T09:25:50.774Z,9.77
2023-05-10T09:30:56.444Z,10.48
2023-05-10T09:36:08.455Z,9.73
2023-05-10T09:41:18.976Z,8.65
2023-05-10T09:46:22.087Z,8.88
2023-05-10T09:51:27.961Z,8.43
2023-05-10T09:56:41.953Z,8.98
2023-05-10T10:01:51.293Z,7.32
2023-05-10T10:07:01.633Z,6.75
2023-05-10T10:12:06.620Z,7.03
2023-05-10T10:17:09.964Z,7.60
2023-05-10T10:22:13.508Z,7.60
2023-05-10T10:27:23.771Z,7.80
2023-05-10T10:32:30.086Z,5.80
2023-05-10T10:37:45.628Z,8.57
2023-05-10T10:42:50.975Z,9.20
2023-05-10T10:48:11.725Z,9.23
2023-05-10T10:53:15.119Z,9.00
2023-05-10T10:58:33.217Z,9.02
2023-05-10T11:03:36.325Z,9.32
2023-05-10T11:08:44.530Z,10.05
2023-05-10T11:13:51.196Z,8.57
2023-05-10T11:19:03.003Z,8.73
2023-05-10T11:24:14.678Z,8.93
2023-05-10T11:29:19.409Z,8.55
2023-05-10T11:34:25.948Z,10.48
2023-05-10T11:39:29.729Z,9.40
2023-05-10T11:44:34.497Z,8.55
2023-05-10T11:49:37.654Z,8.73
2023-05-10T11:54:46.696Z,8.32
2023-05-10T11:59:55.190Z,8.27
2023-05-10T12:04:58.508Z,9.15
2023-05-10T12:10:05.396Z,8.60
2023-05-10T12:15:12.574Z,7.75
2023-05-10T12:20:17.047Z,7.15
2023-05-10T12:25:20.792Z,6.80
2023-05-10T12:30:25.885Z,6.43
2023-05-10T12:35:31.647Z,6.28
2023-05-10T12:40:34.808Z,5.93
2023-05-10T12:45:39.386Z,6.28
2023-05-10T12:50:42.695Z,6.25
2023-05-10T12:55:45.932Z,5.88
2023-05-10T13:00:50.641Z,5.78
2023-05-10T13:05:53.768Z,6.38
2023-05-10T13:10:56.888Z,5.60
2023-05-10T13:16:01.358Z,6.10
2023-05-10T13:21:05.005Z,5.97
2023-05-10T13:26:08.182Z,6.20
2023-05-10T13:31:12.751Z,7.20
2023-05-10T13:36:15.989Z,10.02
2023-05-10T13:41:19.155Z,8.05
2023-05-10T13:46:23.703Z,8.02
2023-05-10T13:51:26.861Z,9.32
2023-05-10T13:56:29.983Z,9.35
2023-05-10T14:01:34.544Z,10.05
2023-05-10T14:06:37.686Z,11.23
2023-05-10T14:11:44.116Z,10.30
2023-05-10T14:16:48.716Z,11.07
2023-05-10T14:21:53.021Z,11.20
2023-05-10T14:26:56.141Z,11.55
2023-05-10T14:32:00.820Z,11.70
2023-05-10T14:37:03.975Z,11.07
2023-05-10T14:42:07.137Z,10.43
2023-05-10T14:47:12.443Z,9.20
2023-05-10T14:52:15.553Z,6.60
2023-05-10T14:57:18.798Z,6.22
2023-05-10T15:02:23.356Z,4.45
2023-05-10T15:07:26.773Z,4.60
2023-05-10T15:12:29.908Z,4.03
2023-05-10T15:17:34.852Z,3.38
2023-05-10T15:22:38.003Z,2.80
2023-05-10T15:27:41.049Z,2.08
2023-05-10T15:32:45.579Z,2.50
2023-05-10T15:37:49.285Z,2.35
2023-05-10T15:42:52.350Z,2.50
2023-05-10T15:47:56.814Z,2.47
2023-05-10T15:53:00.004Z,2.92
2023-05-10T15:58:03.191Z,3.33
2023-05-10T16:03:08.026Z,2.65
2023-05-10T16:08:11.168Z,2.60
2023-05-10T16:13:15.150Z,2.03
2023-05-10T16:18:19.955Z,2.58
2023-05-10T16:23:23.278Z,2.10
2023-05-10T16:28:26.453Z,2.90
2023-05-10T16:33:31.078Z,2.42
2023-05-10T16:38:34.242Z,2.83
2023-05-10T16:43:37.778Z,2.53
2023-05-10T16:48:42.233Z,1.90
2023-05-10T16:53:45.372Z,2.47
2023-05-10T16:58:49.915Z,2.67
2023-05-10T17:03:54.507Z,2.78
2023-05-10T17:08:57.683Z,2.35
2023-05-10T17:14:02.164Z,2.00
2023-05-10T17:19:06.709Z,2.50
2023-05-10T17:24:09.927Z,2.25
2023-05-10T17:29:14.106Z,1.92
2023-05-10T17:34:18.655Z,1.58
2023-05-10T17:39:21.820Z,2.30
2023-05-10T17:44:26.036Z,3.95
2023-05-10T17:49:30.504Z,3.40
2023-05-10T17:54:33.618Z,4.60
2023-05-10T17:59:36.740Z,4.53
2023-05-10T18:04:42.103Z,4.38
2023-05-10T18:09:45.382Z,5.45
2023-05-10T18:14:48.556Z,4.90
2023-05-10T18:19:53.457Z,5.30
2023-05-10T18:24:56.588Z,5.70
2023-05-10T18:29:59.812Z,5.35
2023-05-10T18:35:05.051Z,4.45
2023-05-10T18:40:09.583Z,5.40
2023-05-10T18:45:13.181Z,5.95
2023-05-10T18:50:18.133Z,4.57
2023-05-10T18:55:21.348Z,6.05
2023-05-10T19:00:24.703Z,5.72
2023-05-10T19:05:30.380Z,5.95
2023-05-10T19:10:33.533Z,5.40
2023-05-10T19:15:36.729Z,5.70
2023-05-10T19:20:42.452Z,5.47
2023-05-10T19:25:46.810Z,5.70
2023-05-10T19:30:50.704Z,4.70
2023-05-10T19:35:55.305Z,5.78
2023-05-10T19:40:59.511Z,5.30
2023-05-10T19:46:03.492Z,5.45
2023-05-10T19:51:10.108Z,5.85
2023-05-10T19:56:14.289Z,6.00
2023-05-10T20:01:17.422Z,5.63
2023-05-10T20:06:21.948Z,7.15
2023-05-10T20:11:25.031Z,8.00
2023-05-10T20:16:28.275Z,9.60
2023-05-10T20:21:33.537Z,8.80
2023-05-10T20:26:36.773Z,9.27
2023-05-10T20:31:39.942Z,9.80
2023-05-10T20:36:44.434Z,10.55
2023-05-10T20:41:47.516Z,9.55
2023-05-10T20:46:50.821Z,10.30
2023-05-10T20:51:55.490Z,9.38
2023-05-10T20:56:58.745Z,10.15
2023-05-10T21:02:01.910Z,12.45
2023-05-10T21:07:06.520Z,10.90
2023-05-10T21:12:09.908Z,9.75
2023-05-10T21:17:13.040Z,11.15
2023-05-10T21:22:17.551Z,11.20
2023-05-10T21:27:20.720Z,11.15
2023-05-10T21:32:23.878Z,12.88
2023-05-10T21:37:28.405Z,12.35
2023-05-10T21:42:31.636Z,14.23
2023-05-10T21:47:34.978Z,14.65
2023-05-10T21:52:39.510Z,16.25
2023-05-10T21:57:42.578Z,16.02
2023-05-10T22:02:46.500Z,16.65
2023-05-10T22:07:51.224Z,19.63
2023-05-10T22:12:54.330Z,20.65
2023-05-10T22:17:57.474Z,21.05
2023-05-10T22:23:02.136Z,22.25
2023-05-10T22:28:05.395Z,22.40
2023-05-10T22:33:08.577Z,23.83
2023-05-10T22:38:13.409Z,22.55
2023-05-10T22:43:17.806Z,23.17
2023-05-10T22:48:22.088Z,22.60
2023-05-10T22:53:26.650Z,22.25
2023-05-10T22:58:29.828Z,23.95
2023-05-10T23:03:32.966Z,20.83
2023-05-10T23:08:37.488Z,24.13
2023-05-10T23:13:40.642Z,24.23
2023-05-10T23:18:43.864Z,24.73
2023-05-10T23:23:48.678Z,24.95
2023-05-10T23:28:51.823Z,23.45
2023-05-10T23:33:55.089Z,24.63
2023-05-10T23:38:59.678Z,24.63
2023-05-10T23:44:02.834Z,25.65
2023-05-10T23:49:06.190Z,25.35
2023-05-10T23:54:10.706Z,24.15
2023-05-10T23:59:13.848Z,24.80
